Share Air
"07/29 @rjch_metar:RJCH 291114Z 2912/3018 23009KT 9999 FEW008 BKN015 TEMPO 2914/2918 4000 BR FEW005 BKN008 TEMPO 3009/3018 4000 BR FEW005 BKN008 [tweet auto post]" #nearair http://nearair.net/na.php?id=5513785


Tweet


Share




Copyright (C) 2011 Entatonic.net.
All Rights Reserved.